sensor_id;sensor_type;location;lat;lon;timestamp;P1;durP1;ratioP1;P2;durP2;ratioP2
49340;SDS011;35209;51.050;13.678;2023-08-06T00:01:57;3.53;;;3.22;;
49340;SDS011;35209;51.050;13.678;2023-08-06T00:06:59;3.63;;;3.42;;
49340;SDS011;35209;51.050;13.678;2023-08-06T00:12:00;3.30;;;3.10;;
49340;SDS011;35209;51.050;13.678;2023-08-06T00:17:02;4.07;;;3.78;;
49340;SDS011;35209;51.050;13.678;2023-08-06T00:22:04;3.65;;;3.35;;
49340;SDS011;35209;51.050;13.678;2023-08-06T00:27:06;4.22;;;3.83;;
49340;SDS011;35209;51.050;13.678;2023-08-06T00:32:08;3.92;;;3.63;;
49340;SDS011;35209;51.050;13.678;2023-08-06T00:37:09;3.97;;;3.67;;
49340;SDS011;35209;51.050;13.678;2023-08-06T00:42:13;3.85;;;3.58;;
49340;SDS011;35209;51.050;13.678;2023-08-06T00:47:15;4.25;;;3.95;;
49340;SDS011;35209;51.050;13.678;2023-08-06T00:52:18;5.75;;;5.35;;
49340;SDS011;35209;51.050;13.678;2023-08-06T00:57:20;4.88;;;4.47;;
49340;SDS011;35209;51.050;13.678;2023-08-06T01:02:26;4.73;;;4.33;;
49340;SDS011;35209;51.050;13.678;2023-08-06T01:07:41;4.55;;;4.25;;
49340;SDS011;35209;51.050;13.678;2023-08-06T01:12:52;6.00;;;5.50;;
49340;SDS011;35209;51.050;13.678;2023-08-06T01:18:07;4.70;;;4.30;;
49340;SDS011;35209;51.050;13.678;2023-08-06T01:23:09;5.50;;;5.10;;
49340;SDS011;35209;51.050;13.678;2023-08-06T01:28:12;4.22;;;3.92;;
49340;SDS011;35209;51.050;13.678;2023-08-06T01:33:24;5.88;;;5.43;;
49340;SDS011;35209;51.050;13.678;2023-08-06T01:38:29;6.22;;;5.78;;
49340;SDS011;35209;51.050;13.678;2023-08-06T01:43:31;6.25;;;5.75;;
49340;SDS011;35209;51.050;13.678;2023-08-06T01:48:33;5.35;;;4.95;;
49340;SDS011;35209;51.050;13.678;2023-08-06T01:53:35;5.80;;;5.43;;
49340;SDS011;35209;51.050;13.678;2023-08-06T01:58:37;5.15;;;4.72;;
49340;SDS011;35209;51.050;13.678;2023-08-06T02:03:38;5.70;;;5.15;;
49340;SDS011;35209;51.050;13.678;2023-08-06T02:08:40;5.55;;;5.15;;
49340;SDS011;35209;51.050;13.678;2023-08-06T02:13:42;5.07;;;4.70;;
49340;SDS011;35209;51.050;13.678;2023-08-06T02:18:44;8.02;;;7.50;;
49340;SDS011;35209;51.050;13.678;2023-08-06T02:23:45;7.18;;;6.68;;
49340;SDS011;35209;51.050;13.678;2023-08-06T02:28:47;7.40;;;6.88;;
49340;SDS011;35209;51.050;13.678;2023-08-06T02:33:49;7.53;;;7.03;;
49340;SDS011;35209;51.050;13.678;2023-08-06T02:38:51;7.57;;;6.97;;
49340;SDS011;35209;51.050;13.678;2023-08-06T02:43:53;8.50;;;7.90;;
49340;SDS011;35209;51.050;13.678;2023-08-06T02:48:55;9.95;;;9.25;;
49340;SDS011;35209;51.050;13.678;2023-08-06T02:53:56;8.25;;;7.68;;
49340;SDS011;35209;51.050;13.678;2023-08-06T02:58:58;8.00;;;7.50;;
49340;SDS011;35209;51.050;13.678;2023-08-06T03:04:11;8.77;;;8.18;;
49340;SDS011;35209;51.050;13.678;2023-08-06T03:09:17;10.07;;;9.43;;
49340;SDS011;35209;51.050;13.678;2023-08-06T03:14:22;8.60;;;8.00;;
49340;SDS011;35209;51.050;13.678;2023-08-06T03:19:24;7.97;;;7.38;;
49340;SDS011;35209;51.050;13.678;2023-08-06T03:24:27;8.82;;;8.15;;
49340;SDS011;35209;51.050;13.678;2023-08-06T03:29:29;8.43;;;7.93;;
49340;SDS011;35209;51.050;13.678;2023-08-06T03:34:34;8.30;;;7.72;;
49340;SDS011;35209;51.050;13.678;2023-08-06T03:39:36;8.68;;;8.07;;
49340;SDS011;35209;51.050;13.678;2023-08-06T03:44:38;7.70;;;7.10;;
49340;SDS011;35209;51.050;13.678;2023-08-06T03:49:43;9.63;;;8.93;;
49340;SDS011;35209;51.050;13.678;2023-08-06T03:54:46;9.48;;;8.88;;
49340;SDS011;35209;51.050;13.678;2023-08-06T03:59:48;6.95;;;6.45;;
49340;SDS011;35209;51.050;13.678;2023-08-06T04:04:57;8.25;;;7.75;;
49340;SDS011;35209;51.050;13.678;2023-08-06T04:10:01;8.30;;;7.70;;
49340;SDS011;35209;51.050;13.678;2023-08-06T04:15:04;6.70;;;6.20;;
49340;SDS011;35209;51.050;13.678;2023-08-06T04:20:07;7.00;;;6.60;;
49340;SDS011;35209;51.050;13.678;2023-08-06T04:25:09;6.28;;;5.88;;
49340;SDS011;35209;51.050;13.678;2023-08-06T04:30:11;7.15;;;6.65;;
49340;SDS011;35209;51.050;13.678;2023-08-06T04:35:15;7.15;;;6.65;;
49340;SDS011;35209;51.050;13.678;2023-08-06T04:40:17;6.20;;;5.82;;
49340;SDS011;35209;51.050;13.678;2023-08-06T04:45:19;6.60;;;6.10;;
49340;SDS011;35209;51.050;13.678;2023-08-06T04:50:20;7.22;;;6.72;;
49340;SDS011;35209;51.050;13.678;2023-08-06T04:55:22;6.50;;;6.10;;
49340;SDS011;35209;51.050;13.678;2023-08-06T05:00:24;6.03;;;5.63;;
49340;SDS011;35209;51.050;13.678;2023-08-06T05:05:25;5.10;;;4.70;;
49340;SDS011;35209;51.050;13.678;2023-08-06T05:10:27;3.10;;;2.90;;
49340;SDS011;35209;51.050;13.678;2023-08-06T05:15:29;3.40;;;3.10;;
49340;SDS011;35209;51.050;13.678;2023-08-06T05:20:31;2.80;;;2.60;;
49340;SDS011;35209;51.050;13.678;2023-08-06T05:25:37;2.60;;;2.40;;
49340;SDS011;35209;51.050;13.678;2023-08-06T05:30:39;2.50;;;2.40;;
49340;SDS011;35209;51.050;13.678;2023-08-06T05:35:42;2.90;;;2.70;;
49340;SDS011;35209;51.050;13.678;2023-08-06T05:40:43;2.90;;;2.70;;
49340;SDS011;35209;51.050;13.678;2023-08-06T05:45:45;3.10;;;2.90;;
49340;SDS011;35209;51.050;13.678;2023-08-06T05:50:51;2.28;;;2.10;;
49340;SDS011;35209;51.050;13.678;2023-08-06T05:55:53;3.05;;;2.85;;
49340;SDS011;35209;51.050;13.678;2023-08-06T06:00:55;3.15;;;2.95;;
49340;SDS011;35209;51.050;13.678;2023-08-06T06:05:57;2.75;;;2.55;;
49340;SDS011;35209;51.050;13.678;2023-08-06T06:11:01;3.53;;;3.33;;
49340;SDS011;35209;51.050;13.678;2023-08-06T06:16:03;3.55;;;3.33;;
49340;SDS011;35209;51.050;13.678;2023-08-06T06:21:06;2.42;;;2.33;;
49340;SDS011;35209;51.050;13.678;2023-08-06T06:26:08;4.43;;;4.03;;
49340;SDS011;35209;51.050;13.678;2023-08-06T06:31:11;2.70;;;2.50;;
49340;SDS011;35209;51.050;13.678;2023-08-06T06:36:13;3.42;;;3.13;;
49340;SDS011;35209;51.050;13.678;2023-08-06T06:41:14;2.38;;;2.17;;
49340;SDS011;35209;51.050;13.678;2023-08-06T06:46:16;3.92;;;3.63;;
49340;SDS011;35209;51.050;13.678;2023-08-06T06:51:18;3.08;;;2.88;;
49340;SDS011;35209;51.050;13.678;2023-08-06T06:56:20;3.50;;;3.30;;
49340;SDS011;35209;51.050;13.678;2023-08-06T07:01:21;4.22;;;3.92;;
49340;SDS011;35209;51.050;13.678;2023-08-06T07:06:23;3.38;;;3.17;;
49340;SDS011;35209;51.050;13.678;2023-08-06T07:11:25;4.13;;;3.83;;
49340;SDS011;35209;51.050;13.678;2023-08-06T07:16:27;3.47;;;3.20;;
49340;SDS011;35209;51.050;13.678;2023-08-06T07:21:29;3.45;;;3.15;;
49340;SDS011;35209;51.050;13.678;2023-08-06T07:26:31;3.50;;;3.20;;
49340;SDS011;35209;51.050;13.678;2023-08-06T07:31:32;2.55;;;2.35;;
49340;SDS011;35209;51.050;13.678;2023-08-06T07:36:34;2.78;;;2.58;;
49340;SDS011;35209;51.050;13.678;2023-08-06T07:41:36;2.40;;;2.20;;
49340;SDS011;35209;51.050;13.678;2023-08-06T07:46:38;2.25;;;2.05;;
49340;SDS011;35209;51.050;13.678;2023-08-06T07:51:40;2.13;;;1.90;;
49340;SDS011;35209;51.050;13.678;2023-08-06T07:56:50;2.20;;;2.00;;
49340;SDS011;35209;51.050;13.678;2023-08-06T08:01:52;2.05;;;1.95;;
49340;SDS011;35209;51.050;13.678;2023-08-06T08:06:54;2.08;;;1.90;;
49340;SDS011;35209;51.050;13.678;2023-08-06T08:11:56;1.67;;;1.55;;
49340;SDS011;35209;51.050;13.678;2023-08-06T08:17:01;2.22;;;1.50;;
49340;SDS011;35209;51.050;13.678;2023-08-06T08:22:09;1.55;;;1.33;;
49340;SDS011;35209;51.050;13.678;2023-08-06T08:27:11;0.88;;;0.80;;
49340;SDS011;35209;51.050;13.678;2023-08-06T08:32:13;1.30;;;1.20;;
49340;SDS011;35209;51.050;13.678;2023-08-06T08:37:15;1.10;;;1.00;;
49340;SDS011;35209;51.050;13.678;2023-08-06T08:42:17;1.30;;;1.20;;
49340;SDS011;35209;51.050;13.678;2023-08-06T08:47:19;1.40;;;1.30;;
49340;SDS011;35209;51.050;13.678;2023-08-06T08:52:21;1.08;;;1.00;;
49340;SDS011;35209;51.050;13.678;2023-08-06T08:57:24;1.00;;;0.90;;
49340;SDS011;35209;51.050;13.678;2023-08-06T09:02:28;1.10;;;1.00;;
49340;SDS011;35209;51.050;13.678;2023-08-06T09:07:34;1.25;;;1.10;;
49340;SDS011;35209;51.050;13.678;2023-08-06T09:12:40;2.47;;;1.60;;
49340;SDS011;35209;51.050;13.678;2023-08-06T09:17:43;2.17;;;1.98;;
49340;SDS011;35209;51.050;13.678;2023-08-06T09:22:44;2.58;;;2.00;;
49340;SDS011;35209;51.050;13.678;2023-08-06T09:27:46;1.95;;;1.85;;
49340;SDS011;35209;51.050;13.678;2023-08-06T09:32:49;2.20;;;2.00;;
49340;SDS011;35209;51.050;13.678;2023-08-06T09:37:53;2.60;;;2.40;;
49340;SDS011;35209;51.050;13.678;2023-08-06T09:42:56;2.65;;;2.45;;
49340;SDS011;35209;51.050;13.678;2023-08-06T09:48:00;2.17;;;1.92;;
49340;SDS011;35209;51.050;13.678;2023-08-06T09:53:05;2.27;;;1.97;;
49340;SDS011;35209;51.050;13.678;2023-08-06T09:58:08;1.40;;;1.30;;
49340;SDS011;35209;51.050;13.678;2023-08-06T10:03:10;1.48;;;1.38;;
49340;SDS011;35209;51.050;13.678;2023-08-06T10:08:15;1.88;;;1.58;;
49340;SDS011;35209;51.050;13.678;2023-08-06T10:13:17;2.22;;;1.63;;
49340;SDS011;35209;51.050;13.678;2023-08-06T10:18:23;1.52;;;1.35;;
49340;SDS011;35209;51.050;13.678;2023-08-06T10:23:33;1.75;;;1.58;;
49340;SDS011;35209;51.050;13.678;2023-08-06T10:28:37;1.70;;;1.60;;
49340;SDS011;35209;51.050;13.678;2023-08-06T10:33:43;1.60;;;1.50;;
49340;SDS011;35209;51.050;13.678;2023-08-06T10:38:50;1.75;;;1.30;;
49340;SDS011;35209;51.050;13.678;2023-08-06T10:43:52;1.77;;;1.27;;
49340;SDS011;35209;51.050;13.678;2023-08-06T10:48:54;2.70;;;1.27;;
49340;SDS011;35209;51.050;13.678;2023-08-06T10:53:56;1.58;;;1.48;;
49340;SDS011;35209;51.050;13.678;2023-08-06T10:58:59;1.38;;;1.27;;
49340;SDS011;35209;51.050;13.678;2023-08-06T11:04:02;1.25;;;1.20;;
49340;SDS011;35209;51.050;13.678;2023-08-06T11:09:04;1.20;;;1.10;;
49340;SDS011;35209;51.050;13.678;2023-08-06T11:14:06;1.33;;;1.00;;
49340;SDS011;35209;51.050;13.678;2023-08-06T11:19:08;2.00;;;1.20;;
49340;SDS011;35209;51.050;13.678;2023-08-06T11:24:10;2.25;;;1.10;;
49340;SDS011;35209;51.050;13.678;2023-08-06T11:29:14;1.30;;;1.20;;
49340;SDS011;35209;51.050;13.678;2023-08-06T11:34:17;1.08;;;0.98;;
49340;SDS011;35209;51.050;13.678;2023-08-06T11:39:19;1.38;;;1.27;;
49340;SDS011;35209;51.050;13.678;2023-08-06T11:44:21;1.10;;;1.05;;
49340;SDS011;35209;51.050;13.678;2023-08-06T11:49:40;2.08;;;1.33;;
49340;SDS011;35209;51.050;13.678;2023-08-06T11:55:00;1.20;;;1.10;;
49340;SDS011;35209;51.050;13.678;2023-08-06T12:00:10;1.50;;;1.40;;
49340;SDS011;35209;51.050;13.678;2023-08-06T12:05:17;1.25;;;1.15;;
49340;SDS011;35209;51.050;13.678;2023-08-06T12:10:22;1.77;;;1.67;;
49340;SDS011;35209;51.050;13.678;2023-08-06T12:15:26;1.60;;;1.50;;
49340;SDS011;35209;51.050;13.678;2023-08-06T12:20:28;1.70;;;1.30;;
49340;SDS011;35209;51.050;13.678;2023-08-06T12:25:29;1.25;;;1.15;;
49340;SDS011;35209;51.050;13.678;2023-08-06T12:30:31;1.30;;;1.20;;
49340;SDS011;35209;51.050;13.678;2023-08-06T12:35:33;1.75;;;1.65;;
49340;SDS011;35209;51.050;13.678;2023-08-06T12:40:35;0.90;;;0.90;;
49340;SDS011;35209;51.050;13.678;2023-08-06T12:45:42;1.27;;;1.15;;
49340;SDS011;35209;51.050;13.678;2023-08-06T12:50:44;1.25;;;1.15;;
49340;SDS011;35209;51.050;13.678;2023-08-06T12:55:46;2.53;;;1.30;;
49340;SDS011;35209;51.050;13.678;2023-08-06T13:00:49;1.45;;;1.20;;
49340;SDS011;35209;51.050;13.678;2023-08-06T13:05:51;0.90;;;0.90;;
49340;SDS011;35209;51.050;13.678;2023-08-06T13:10:52;2.00;;;1.00;;
49340;SDS011;35209;51.050;13.678;2023-08-06T13:15:54;0.90;;;0.90;;
49340;SDS011;35209;51.050;13.678;2023-08-06T13:20:56;1.27;;;1.00;;
49340;SDS011;35209;51.050;13.678;2023-08-06T13:25:58;0.80;;;0.70;;
49340;SDS011;35209;51.050;13.678;2023-08-06T13:31:00;0.77;;;0.70;;
49340;SDS011;35209;51.050;13.678;2023-08-06T13:36:02;0.90;;;0.80;;
49340;SDS011;35209;51.050;13.678;2023-08-06T13:41:04;0.75;;;0.70;;
49340;SDS011;35209;51.050;13.678;2023-08-06T13:46:07;0.65;;;0.65;;
49340;SDS011;35209;51.050;13.678;2023-08-06T13:51:09;0.95;;;0.73;;
49340;SDS011;35209;51.050;13.678;2023-08-06T13:56:12;0.60;;;0.60;;
49340;SDS011;35209;51.050;13.678;2023-08-06T14:01:16;1.90;;;0.75;;
49340;SDS011;35209;51.050;13.678;2023-08-06T14:06:20;0.60;;;0.60;;
49340;SDS011;35209;51.050;13.678;2023-08-06T14:11:22;0.70;;;0.70;;
49340;SDS011;35209;51.050;13.678;2023-08-06T14:16:24;0.93;;;0.70;;
49340;SDS011;35209;51.050;13.678;2023-08-06T14:21:28;1.20;;;1.10;;
49340;SDS011;35209;51.050;13.678;2023-08-06T14:26:30;0.80;;;0.80;;
49340;SDS011;35209;51.050;13.678;2023-08-06T14:31:32;1.42;;;1.17;;
49340;SDS011;35209;51.050;13.678;2023-08-06T14:36:34;0.90;;;0.70;;
49340;SDS011;35209;51.050;13.678;2023-08-06T14:41:36;0.80;;;0.80;;
49340;SDS011;35209;51.050;13.678;2023-08-06T14:46:38;0.70;;;0.70;;
49340;SDS011;35209;51.050;13.678;2023-08-06T14:51:40;0.80;;;0.80;;
49340;SDS011;35209;51.050;13.678;2023-08-06T14:56:42;0.80;;;0.80;;
49340;SDS011;35209;51.050;13.678;2023-08-06T15:01:44;1.00;;;0.90;;
49340;SDS011;35209;51.050;13.678;2023-08-06T15:06:46;1.13;;;0.90;;
49340;SDS011;35209;51.050;13.678;2023-08-06T15:11:48;1.67;;;0.90;;
49340;SDS011;35209;51.050;13.678;2023-08-06T15:16:50;1.30;;;1.17;;
49340;SDS011;35209;51.050;13.678;2023-08-06T15:21:53;1.65;;;1.20;;
49340;SDS011;35209;51.050;13.678;2023-08-06T15:26:55;0.98;;;0.98;;
49340;SDS011;35209;51.050;13.678;2023-08-06T15:31:58;1.10;;;1.10;;
49340;SDS011;35209;51.050;13.678;2023-08-06T15:37:00;1.48;;;1.38;;
49340;SDS011;35209;51.050;13.678;2023-08-06T15:42:03;2.15;;;1.73;;
49340;SDS011;35209;51.050;13.678;2023-08-06T15:47:05;2.55;;;2.35;;
49340;SDS011;35209;51.050;13.678;2023-08-06T15:52:07;4.20;;;3.67;;
49340;SDS011;35209;51.050;13.678;2023-08-06T15:57:09;3.35;;;3.15;;
49340;SDS011;35209;51.050;13.678;2023-08-06T16:02:11;3.13;;;2.80;;
49340;SDS011;35209;51.050;13.678;2023-08-06T16:07:14;4.60;;;4.30;;
49340;SDS011;35209;51.050;13.678;2023-08-06T16:12:17;3.30;;;3.10;;
49340;SDS011;35209;51.050;13.678;2023-08-06T16:17:20;3.20;;;3.00;;
49340;SDS011;35209;51.050;13.678;2023-08-06T16:22:24;3.40;;;3.20;;
49340;SDS011;35209;51.050;13.678;2023-08-06T16:27:27;4.53;;;4.20;;
49340;SDS011;35209;51.050;13.678;2023-08-06T16:32:29;4.75;;;4.45;;
49340;SDS011;35209;51.050;13.678;2023-08-06T16:37:31;4.18;;;3.97;;
49340;SDS011;35209;51.050;13.678;2023-08-06T16:42:33;5.82;;;5.43;;
49340;SDS011;35209;51.050;13.678;2023-08-06T16:47:35;6.15;;;5.75;;
49340;SDS011;35209;51.050;13.678;2023-08-06T16:52:37;7.07;;;6.63;;
49340;SDS011;35209;51.050;13.678;2023-08-06T16:57:39;7.18;;;6.68;;
49340;SDS011;35209;51.050;13.678;2023-08-06T17:02:41;7.97;;;7.47;;
49340;SDS011;35209;51.050;13.678;2023-08-06T17:07:43;7.07;;;6.57;;
49340;SDS011;35209;51.050;13.678;2023-08-06T17:12:50;8.60;;;8.02;;
49340;SDS011;35209;51.050;13.678;2023-08-06T17:18:00;7.63;;;7.13;;
49340;SDS011;35209;51.050;13.678;2023-08-06T17:23:02;8.70;;;8.20;;
49340;SDS011;35209;51.050;13.678;2023-08-06T17:28:06;8.70;;;8.20;;
49340;SDS011;35209;51.050;13.678;2023-08-06T17:33:08;7.78;;;7.32;;
49340;SDS011;35209;51.050;13.678;2023-08-06T17:38:11;7.53;;;7.10;;
49340;SDS011;35209;51.050;13.678;2023-08-06T17:43:13;7.10;;;6.70;;
49340;SDS011;35209;51.050;13.678;2023-08-06T17:48:15;8.18;;;7.75;;
49340;SDS011;35209;51.050;13.678;2023-08-06T17:53:17;8.00;;;7.43;;
49340;SDS011;35209;51.050;13.678;2023-08-06T17:58:19;8.88;;;8.27;;
49340;SDS011;35209;51.050;13.678;2023-08-06T18:03:22;9.68;;;9.00;;
49340;SDS011;35209;51.050;13.678;2023-08-06T18:08:26;9.85;;;9.25;;
49340;SDS011;35209;51.050;13.678;2023-08-06T18:13:28;6.72;;;6.22;;
49340;SDS011;35209;51.050;13.678;2023-08-06T18:18:30;6.65;;;6.15;;
49340;SDS011;35209;51.050;13.678;2023-08-06T18:23:32;5.57;;;5.18;;
49340;SDS011;35209;51.050;13.678;2023-08-06T18:28:34;4.05;;;3.75;;
49340;SDS011;35209;51.050;13.678;2023-08-06T18:33:37;2.33;;;2.05;;
49340;SDS011;35209;51.050;13.678;2023-08-06T18:38:40;2.35;;;1.35;;
49340;SDS011;35209;51.050;13.678;2023-08-06T18:43:44;1.45;;;1.30;;
49340;SDS011;35209;51.050;13.678;2023-08-06T18:48:46;2.05;;;1.60;;
49340;SDS011;35209;51.050;13.678;2023-08-06T18:53:49;1.70;;;1.10;;
49340;SDS011;35209;51.050;13.678;2023-08-06T18:58:51;1.13;;;1.02;;
49340;SDS011;35209;51.050;13.678;2023-08-06T19:03:53;1.38;;;0.85;;
49340;SDS011;35209;51.050;13.678;2023-08-06T19:08:56;1.35;;;1.02;;
49340;SDS011;35209;51.050;13.678;2023-08-06T19:13:58;1.05;;;0.93;;
49340;SDS011;35209;51.050;13.678;2023-08-06T19:19:00;1.10;;;0.90;;
49340;SDS011;35209;51.050;13.678;2023-08-06T19:24:02;1.20;;;1.10;;
49340;SDS011;35209;51.050;13.678;2023-08-06T19:29:04;0.88;;;0.88;;
49340;SDS011;35209;51.050;13.678;2023-08-06T19:34:07;2.15;;;1.30;;
49340;SDS011;35209;51.050;13.678;2023-08-06T19:39:09;2.10;;;1.15;;
49340;SDS011;35209;51.050;13.678;2023-08-06T19:44:11;1.42;;;1.30;;
49340;SDS011;35209;51.050;13.678;2023-08-06T19:49:13;2.42;;;1.10;;
49340;SDS011;35209;51.050;13.678;2023-08-06T19:54:17;1.40;;;1.25;;
49340;SDS011;35209;51.050;13.678;2023-08-06T19:59:19;1.10;;;1.00;;
49340;SDS011;35209;51.050;13.678;2023-08-06T20:04:22;1.30;;;1.20;;
49340;SDS011;35209;51.050;13.678;2023-08-06T20:09:24;1.20;;;1.10;;
49340;SDS011;35209;51.050;13.678;2023-08-06T20:14:27;1.48;;;1.00;;
49340;SDS011;35209;51.050;13.678;2023-08-06T20:19:29;1.65;;;1.20;;
49340;SDS011;35209;51.050;13.678;2023-08-06T20:24:31;1.27;;;1.10;;
49340;SDS011;35209;51.050;13.678;2023-08-06T20:29:33;1.40;;;1.30;;
49340;SDS011;35209;51.050;13.678;2023-08-06T20:34:37;1.70;;;1.60;;
49340;SDS011;35209;51.050;13.678;2023-08-06T20:39:38;1.83;;;1.73;;
49340;SDS011;35209;51.050;13.678;2023-08-06T20:44:40;1.50;;;1.40;;
49340;SDS011;35209;51.050;13.678;2023-08-06T20:49:43;2.00;;;1.58;;
49340;SDS011;35209;51.050;13.678;2023-08-06T20:54:45;1.30;;;1.20;;
49340;SDS011;35209;51.050;13.678;2023-08-06T20:59:47;1.90;;;1.10;;
49340;SDS011;35209;51.050;13.678;2023-08-06T21:04:49;2.20;;;1.30;;
49340;SDS011;35209;51.050;13.678;2023-08-06T21:09:51;1.63;;;1.35;;
49340;SDS011;35209;51.050;13.678;2023-08-06T21:14:53;1.95;;;1.35;;
49340;SDS011;35209;51.050;13.678;2023-08-06T21:19:55;1.23;;;0.90;;
49340;SDS011;35209;51.050;13.678;2023-08-06T21:24:57;1.40;;;1.30;;
49340;SDS011;35209;51.050;13.678;2023-08-06T21:30:00;1.20;;;1.08;;
49340;SDS011;35209;51.050;13.678;2023-08-06T21:35:02;1.38;;;1.10;;
49340;SDS011;35209;51.050;13.678;2023-08-06T21:40:06;1.33;;;0.90;;
49340;SDS011;35209;51.050;13.678;2023-08-06T21:45:09;1.00;;;0.90;;
49340;SDS011;35209;51.050;13.678;2023-08-06T21:50:11;0.77;;;0.70;;
49340;SDS011;35209;51.050;13.678;2023-08-06T21:55:13;0.88;;;0.88;;
49340;SDS011;35209;51.050;13.678;2023-08-06T22:00:15;0.80;;;0.80;;
49340;SDS011;35209;51.050;13.678;2023-08-06T22:05:17;1.15;;;0.70;;
49340;SDS011;35209;51.050;13.678;2023-08-06T22:10:19;1.02;;;0.80;;
49340;SDS011;35209;51.050;13.678;2023-08-06T22:15:21;1.05;;;0.80;;
49340;SDS011;35209;51.050;13.678;2023-08-06T22:20:23;1.23;;;0.90;;
49340;SDS011;35209;51.050;13.678;2023-08-06T22:25:30;1.60;;;0.90;;
49340;SDS011;35209;51.050;13.678;2023-08-06T22:30:31;1.95;;;0.95;;
49340;SDS011;35209;51.050;13.678;2023-08-06T22:35:33;0.85;;;0.85;;
49340;SDS011;35209;51.050;13.678;2023-08-06T22:40:35;1.67;;;0.82;;
49340;SDS011;35209;51.050;13.678;2023-08-06T22:45:37;1.35;;;0.90;;
49340;SDS011;35209;51.050;13.678;2023-08-06T22:50:39;1.20;;;1.10;;
49340;SDS011;35209;51.050;13.678;2023-08-06T22:55:41;1.17;;;0.95;;
49340;SDS011;35209;51.050;13.678;2023-08-06T23:01:03;2.10;;;0.93;;
49340;SDS011;35209;51.050;13.678;2023-08-06T23:06:05;1.27;;;1.00;;
49340;SDS011;35209;51.050;13.678;2023-08-06T23:11:06;0.88;;;0.80;;
49340;SDS011;35209;51.050;13.678;2023-08-06T23:16:09;1.10;;;0.90;;
49340;SDS011;35209;51.050;13.678;2023-08-06T23:21:12;1.27;;;1.17;;
49340;SDS011;35209;51.050;13.678;2023-08-06T23:26:14;1.38;;;1.27;;
49340;SDS011;35209;51.050;13.678;2023-08-06T23:31:16;1.63;;;1.38;;
49340;SDS011;35209;51.050;13.678;2023-08-06T23:36:18;1.30;;;1.25;;
49340;SDS011;35209;51.050;13.678;2023-08-06T23:41:20;1.60;;;1.23;;
49340;SDS011;35209;51.050;13.678;2023-08-06T23:46:22;2.22;;;1.08;;
49340;SDS011;35209;51.050;13.678;2023-08-06T23:51:24;1.23;;;1.13;;
49340;SDS011;35209;51.050;13.678;2023-08-06T23:56:26;1.08;;;1.05;;
